BFL227 AGGH-AYPY
Flight info
| Callsign | BFL227 |
|---|---|
| Flight time | N/A |
| Altitude | 16000 |
| Route | TAMOR DCT AYMS DCT 11S50 DCT LOTGU |
| Aircraft | TBM9/L-SDFGRWY/S |
Departure
| Time | 2026-04-25 22:07 |
|---|---|
| Airport | Honiara International Airport (AGGH) |
Arrival
| Time | N/A |
|---|---|
| Airport | Port Moresby Jacksons International Airport (AYPY) |
| Time | Latitude | Longitude | Altitude | Speed | Heading |
|---|---|---|---|---|---|
| 2026-04-25 21:44 | -9.42890 | 160.04882 | 34 ft | 0 kts | 341° |
| 2026-04-25 22:00 | -9.42898 | 160.04906 | 34 ft | 6 kts | 130° |
| 2026-04-25 22:00 | -9.42905 | 160.04916 | 34 ft | 0 kts | 119° |
| 2026-04-25 22:01 | -9.42910 | 160.04925 | 34 ft | 6 kts | 117° |
| 2026-04-25 22:01 | -9.42945 | 160.04973 | 33 ft | 10 kts | 139° |
| 2026-04-25 22:01 | -9.42973 | 160.05015 | 32 ft | 12 kts | 92° |
| 2026-04-25 22:02 | -9.42935 | 160.05136 | 32 ft | 15 kts | 71° |
| 2026-04-25 22:02 | -9.42899 | 160.05237 | 32 ft | 16 kts | 68° |
| 2026-04-25 22:02 | -9.42854 | 160.05346 | 32 ft | 18 kts | 68° |
| 2026-04-25 22:02 | -9.42809 | 160.05471 | 30 ft | 20 kts | 68° |
| 2026-04-25 22:03 | -9.42752 | 160.05607 | 28 ft | 22 kts | 69° |
| 2026-04-25 22:03 | -9.42711 | 160.05710 | 27 ft | 16 kts | 68° |
| 2026-04-25 22:03 | -9.42667 | 160.05825 | 28 ft | 19 kts | 70° |
| 2026-04-25 22:03 | -9.42619 | 160.05956 | 26 ft | 20 kts | 69° |
| 2026-04-25 22:04 | -9.42566 | 160.06084 | 27 ft | 18 kts | 67° |
| 2026-04-25 22:04 | -9.42510 | 160.06206 | 25 ft | 20 kts | 64° |
| 2026-04-25 22:04 | -9.42446 | 160.06312 | 25 ft | 15 kts | 43° |
| 2026-04-25 22:04 | -9.42462 | 160.06326 | 25 ft | 6 kts | 230° |
| 2026-04-25 22:05 | -9.42472 | 160.06308 | 26 ft | 0 kts | 250° |
| 2026-04-25 22:06 | -9.42493 | 160.06259 | 26 ft | 26 kts | 245° |
| 2026-04-25 22:07 | -9.42630 | 160.05917 | 27 ft | 80 kts | 249° |
| 2026-04-25 22:07 | -9.42815 | 160.05515 | 81 ft | 106 kts | 242° |
| 2026-04-25 22:07 | -9.43242 | 160.04523 | 467 ft | 123 kts | 251° |
| 2026-04-25 22:07 | -9.43465 | 160.03615 | 751 ft | 144 kts | 262° |
| 2026-04-25 22:08 | -9.43458 | 160.02940 | 1051 ft | 147 kts | 277° |
| 2026-04-25 22:08 | -9.43206 | 160.01907 | 1501 ft | 155 kts | 292° |
| 2026-04-25 22:08 | -9.42628 | 160.00955 | 1954 ft | 163 kts | 312° |
| 2026-04-25 22:08 | -9.41727 | 160.00257 | 2476 ft | 165 kts | 335° |
| 2026-04-25 22:09 | -9.40528 | 159.99998 | 2579 ft | 193 kts | 3° |
| 2026-04-25 22:09 | -9.39187 | 160.00264 | 2796 ft | 205 kts | 15° |
| 2026-04-25 22:09 | -9.37755 | 160.00632 | 2802 ft | 219 kts | 15° |
| 2026-04-25 22:09 | -9.36250 | 160.01030 | 2805 ft | 227 kts | 16° |
| 2026-04-25 22:10 | -9.34710 | 160.01470 | 2804 ft | 232 kts | 17° |
| 2026-04-25 22:10 | -9.33158 | 160.01950 | 2803 ft | 235 kts | 18° |
| 2026-04-25 22:10 | -9.31599 | 160.02469 | 2806 ft | 236 kts | 20° |
| 2026-04-25 22:10 | -9.30050 | 160.03024 | 2809 ft | 237 kts | 21° |
| 2026-04-25 22:11 | -9.28512 | 160.03613 | 2871 ft | 234 kts | 22° |
| 2026-04-25 22:11 | -9.27009 | 160.04222 | 2990 ft | 231 kts | 23° |
| 2026-04-25 22:11 | -9.25521 | 160.04825 | 3105 ft | 230 kts | 17° |
| 2026-04-25 22:11 | -9.23935 | 160.04866 | 3202 ft | 231 kts | 351° |
| 2026-04-25 22:12 | -9.22379 | 160.04516 | 3439 ft | 224 kts | 347° |
| 2026-04-25 22:12 | -9.20880 | 160.04147 | 3731 ft | 220 kts | 347° |
| 2026-04-25 22:12 | -9.19404 | 160.03778 | 4017 ft | 217 kts | 347° |
| 2026-04-25 22:12 | -9.18436 | 160.03535 | 4208 ft | 216 kts | 347° |
| 2026-04-25 22:13 | -9.16501 | 160.03021 | 4595 ft | 215 kts | 340° |
| 2026-04-25 22:13 | -9.15346 | 160.02095 | 4847 ft | 216 kts | 304° |
| 2026-04-25 22:13 | -9.14924 | 160.00656 | 5111 ft | 217 kts | 269° |
| 2026-04-25 22:13 | -9.15378 | 159.99221 | 5376 ft | 217 kts | 238° |
| 2026-04-25 22:14 | -9.16230 | 159.97966 | 5674 ft | 216 kts | 239° |
| 2026-04-25 22:14 | -9.16892 | 159.96605 | 5976 ft | 216 kts | 248° |
| 2026-04-25 22:14 | -9.17427 | 159.95184 | 6268 ft | 216 kts | 249° |
| 2026-04-25 22:14 | -9.17974 | 159.93765 | 6544 ft | 216 kts | 248° |
| 2026-04-25 22:15 | -9.18538 | 159.92354 | 6819 ft | 217 kts | 248° |
| 2026-04-25 22:15 | -9.19105 | 159.90938 | 7099 ft | 217 kts | 248° |
| 2026-04-25 22:15 | -9.19670 | 159.89520 | 7385 ft | 217 kts | 249° |
| 2026-04-25 22:16 | -9.20803 | 159.86674 | 7863 ft | 222 kts | 249° |
| 2026-04-25 22:16 | -9.21394 | 159.85182 | 7882 ft | 233 kts | 249° |
| 2026-04-25 22:16 | -9.22006 | 159.83634 | 7888 ft | 240 kts | 249° |
| 2026-04-25 22:16 | -9.22638 | 159.82045 | 7891 ft | 245 kts | 249° |
| 2026-04-25 22:17 | -9.23279 | 159.80437 | 7891 ft | 248 kts | 249° |
| 2026-04-25 22:17 | -9.23923 | 159.78817 | 7891 ft | 249 kts | 249° |
| 2026-04-25 22:17 | -9.24573 | 159.77186 | 7898 ft | 250 kts | 249° |
| 2026-04-25 22:17 | -9.25223 | 159.75550 | 7897 ft | 251 kts | 249° |
| 2026-04-25 22:18 | -9.25875 | 159.73912 | 7899 ft | 251 kts | 249° |
| 2026-04-25 22:18 | -9.26526 | 159.72273 | 7957 ft | 249 kts | 249° |
| 2026-04-25 22:18 | -9.27167 | 159.70670 | 8169 ft | 242 kts | 249° |
| 2026-04-25 22:18 | -9.27792 | 159.69106 | 8380 ft | 238 kts | 249° |
| 2026-04-25 22:19 | -9.28405 | 159.67561 | 8597 ft | 235 kts | 249° |
| 2026-04-25 22:19 | -9.29006 | 159.66049 | 8811 ft | 234 kts | 249° |
| 2026-04-25 22:19 | -9.29610 | 159.64525 | 9034 ft | 233 kts | 249° |
| 2026-04-25 22:19 | -9.30214 | 159.63006 | 9238 ft | 232 kts | 249° |
| 2026-04-25 22:20 | -9.30852 | 159.61505 | 9467 ft | 232 kts | 242° |
| 2026-04-25 22:20 | -9.31702 | 159.60114 | 9690 ft | 232 kts | 240° |
| 2026-04-25 22:20 | -9.32411 | 159.58651 | 9906 ft | 231 kts | 249° |
| 2026-04-25 22:20 | -9.32973 | 159.57128 | 10113 ft | 231 kts | 251° |
| 2026-04-25 22:21 | -9.33538 | 159.55602 | 10316 ft | 232 kts | 250° |
| 2026-04-25 22:21 | -9.34134 | 159.54082 | 10521 ft | 232 kts | 249° |
| 2026-04-25 22:21 | -9.34730 | 159.52567 | 10728 ft | 233 kts | 250° |
| 2026-04-25 22:21 | -9.35247 | 159.51238 | 10911 ft | 233 kts | 250° |
| 2026-04-25 22:22 | -9.35840 | 159.49710 | 11119 ft | 233 kts | 250° |
| 2026-04-25 22:22 | -9.36409 | 159.48250 | 11323 ft | 234 kts | 250° |
| 2026-04-25 22:22 | -9.37005 | 159.46719 | 11531 ft | 235 kts | 250° |
| 2026-04-25 22:22 | -9.37605 | 159.45177 | 11749 ft | 235 kts | 250° |
| 2026-04-25 22:23 | -9.38206 | 159.43634 | 11965 ft | 236 kts | 250° |
| 2026-04-25 22:23 | -9.38807 | 159.42089 | 12181 ft | 236 kts | 250° |
| 2026-04-25 22:23 | -9.39408 | 159.40543 | 12401 ft | 237 kts | 250° |
| 2026-04-25 22:23 | -9.40013 | 159.38986 | 12619 ft | 238 kts | 250° |
| 2026-04-25 22:24 | -9.40620 | 159.37425 | 12840 ft | 238 kts | 250° |
| 2026-04-25 22:24 | -9.41227 | 159.35865 | 13064 ft | 239 kts | 250° |
| 2026-04-25 22:24 | -9.41836 | 159.34298 | 13282 ft | 239 kts | 250° |
| 2026-04-25 22:24 | -9.42447 | 159.32727 | 13519 ft | 240 kts | 250° |
| 2026-04-25 22:25 | -9.43058 | 159.31153 | 13743 ft | 240 kts | 250° |
| 2026-04-25 22:25 | -9.43835 | 159.29655 | 13918 ft | 243 kts | 231° |
| 2026-04-25 22:25 | -9.45075 | 159.28484 | 14117 ft | 245 kts | 221° |
| 2026-04-25 22:25 | -9.46399 | 159.27389 | 14318 ft | 245 kts | 220° |
| 2026-04-25 22:26 | -9.47728 | 159.26307 | 14525 ft | 246 kts | 220° |
| 2026-04-25 22:26 | -9.49045 | 159.25197 | 14729 ft | 246 kts | 224° |
| 2026-04-25 22:26 | -9.50208 | 159.23938 | 14944 ft | 245 kts | 233° |
| 2026-04-25 22:26 | -9.51151 | 159.22510 | 15159 ft | 244 kts | 243° |
| 2026-04-25 22:27 | -9.51833 | 159.20947 | 15380 ft | 242 kts | 255° |
| 2026-04-25 22:27 | -9.52152 | 159.19280 | 15600 ft | 241 kts | 267° |
| 2026-04-25 22:27 | -9.52275 | 159.17589 | 15816 ft | 241 kts | 268° |
| 2026-04-25 22:27 | -9.52439 | 159.15882 | 15897 ft | 248 kts | 265° |
| 2026-04-25 22:28 | -9.52655 | 159.14118 | 15892 ft | 256 kts | 265° |
| 2026-04-25 22:28 | -9.52877 | 159.12310 | 15877 ft | 261 kts | 265° |
| 2026-04-25 22:28 | -9.53092 | 159.10468 | 15885 ft | 265 kts | 265° |
| 2026-04-25 22:28 | -9.53307 | 159.08610 | 15890 ft | 267 kts | 265° |
| 2026-04-25 22:29 | -9.53525 | 159.06760 | 15884 ft | 268 kts | 265° |
| 2026-04-25 22:29 | -9.53746 | 159.04880 | 15892 ft | 269 kts | 265° |
| 2026-04-25 22:29 | -9.53972 | 159.02996 | 15883 ft | 270 kts | 264° |
| 2026-04-25 22:30 | -9.54709 | 158.99244 | 15886 ft | 272 kts | 261° |
| 2026-04-25 22:30 | -9.55072 | 158.97365 | 15884 ft | 272 kts | 261° |
| 2026-04-25 22:30 | -9.55436 | 158.95484 | 15884 ft | 272 kts | 261° |
| 2026-04-25 22:30 | -9.55679 | 158.94238 | 15885 ft | 272 kts | 261° |
| 2026-04-25 22:31 | -9.56171 | 158.91720 | 15884 ft | 273 kts | 261° |
| 2026-04-25 22:31 | -9.56540 | 158.89823 | 15883 ft | 276 kts | 261° |
| 2026-04-25 22:31 | -9.56912 | 158.87907 | 15880 ft | 278 kts | 261° |
| 2026-04-25 22:31 | -9.57286 | 158.85983 | 15885 ft | 279 kts | 261° |
| 2026-04-25 22:32 | -9.57663 | 158.84049 | 15885 ft | 280 kts | 261° |
| 2026-04-25 22:32 | -9.58039 | 158.82116 | 15884 ft | 280 kts | 261° |
| 2026-04-25 22:32 | -9.58418 | 158.80172 | 15885 ft | 281 kts | 261° |
| 2026-04-25 22:32 | -9.58795 | 158.78233 | 15881 ft | 281 kts | 261° |
| 2026-04-25 22:33 | -9.59173 | 158.76289 | 15884 ft | 281 kts | 261° |
| 2026-04-25 22:33 | -9.59550 | 158.74346 | 15883 ft | 281 kts | 261° |
| 2026-04-25 22:33 | -9.59928 | 158.72400 | 15882 ft | 281 kts | 261° |
| 2026-04-25 22:33 | -9.60306 | 158.70457 | 15877 ft | 281 kts | 261° |
| 2026-04-25 22:34 | -9.60684 | 158.68511 | 15880 ft | 281 kts | 261° |
| 2026-04-25 22:34 | -9.61061 | 158.66569 | 15881 ft | 281 kts | 261° |
| 2026-04-25 22:34 | -9.61438 | 158.64624 | 15881 ft | 281 kts | 261° |
| 2026-04-25 22:34 | -9.61814 | 158.62682 | 15883 ft | 281 kts | 261° |
| 2026-04-25 22:35 | -9.62193 | 158.60733 | 15875 ft | 281 kts | 261° |
| 2026-04-25 22:35 | -9.62570 | 158.58789 | 15880 ft | 281 kts | 261° |
| 2026-04-25 22:35 | -9.62946 | 158.56848 | 15882 ft | 281 kts | 261° |
| 2026-04-25 22:35 | -9.63323 | 158.54901 | 15881 ft | 281 kts | 261° |
| 2026-04-25 22:36 | -9.63700 | 158.52955 | 15884 ft | 281 kts | 261° |
| 2026-04-25 22:36 | -9.64076 | 158.51011 | 15886 ft | 281 kts | 261° |
| 2026-04-25 22:36 | -9.64452 | 158.49067 | 15878 ft | 281 kts | 261° |
| 2026-04-25 22:36 | -9.64829 | 158.47123 | 15884 ft | 281 kts | 261° |
| 2026-04-25 22:37 | -9.65206 | 158.45179 | 15887 ft | 281 kts | 261° |
| 2026-04-25 22:37 | -9.65575 | 158.43271 | 15876 ft | 281 kts | 261° |
| 2026-04-25 22:37 | -9.65952 | 158.41319 | 15878 ft | 281 kts | 261° |
| 2026-04-25 22:37 | -9.66327 | 158.39377 | 15880 ft | 281 kts | 261° |
| 2026-04-25 22:38 | -9.66702 | 158.37433 | 15882 ft | 281 kts | 261° |
| 2026-04-25 22:38 | -9.67078 | 158.35489 | 15884 ft | 281 kts | 261° |
| 2026-04-25 22:38 | -9.67454 | 158.33542 | 15882 ft | 281 kts | 261° |
| 2026-04-25 22:38 | -9.67829 | 158.31597 | 15884 ft | 281 kts | 261° |
| 2026-04-25 22:39 | -9.68205 | 158.29654 | 15883 ft | 281 kts | 261° |
| 2026-04-25 22:39 | -9.68580 | 158.27707 | 15886 ft | 281 kts | 261° |
| 2026-04-25 22:39 | -9.68954 | 158.25765 | 15885 ft | 281 kts | 261° |
| 2026-04-25 22:39 | -9.69329 | 158.23823 | 15884 ft | 281 kts | 261° |
| 2026-04-25 22:40 | -9.69704 | 158.21879 | 15886 ft | 281 kts | 261° |
| 2026-04-25 22:40 | -9.70078 | 158.19933 | 15886 ft | 281 kts | 262° |
| 2026-04-25 22:40 | -9.70450 | 158.17992 | 15902 ft | 280 kts | 261° |
| 2026-04-25 22:40 | -9.70825 | 158.16053 | 15900 ft | 280 kts | 261° |
| 2026-04-25 22:41 | -9.71198 | 158.14120 | 15900 ft | 279 kts | 261° |
| 2026-04-25 22:41 | -9.71569 | 158.12190 | 15893 ft | 279 kts | 261° |
| 2026-04-25 22:41 | -9.71940 | 158.10262 | 15895 ft | 279 kts | 261° |
| 2026-04-25 22:41 | -9.72310 | 158.08336 | 15896 ft | 278 kts | 261° |
| 2026-04-25 22:42 | -9.72681 | 158.06409 | 15894 ft | 278 kts | 261° |
| 2026-04-25 22:42 | -9.73051 | 158.04484 | 15892 ft | 278 kts | 261° |
| 2026-04-25 22:42 | -9.73421 | 158.02559 | 15891 ft | 278 kts | 261° |
| 2026-04-25 22:42 | -9.73790 | 158.00637 | 15891 ft | 278 kts | 261° |
| 2026-04-25 22:43 | -9.74159 | 157.98714 | 15885 ft | 278 kts | 261° |
| 2026-04-25 22:43 | -9.74527 | 157.96794 | 15885 ft | 278 kts | 261° |
| 2026-04-25 22:43 | -9.74897 | 157.94870 | 15888 ft | 278 kts | 261° |
| 2026-04-25 22:43 | -9.75265 | 157.92951 | 15882 ft | 278 kts | 261° |
| 2026-04-25 22:44 | -9.75633 | 157.91029 | 15884 ft | 278 kts | 261° |
| 2026-04-25 22:44 | -9.76002 | 157.89107 | 15886 ft | 278 kts | 261° |
| 2026-04-25 22:44 | -9.76369 | 157.87189 | 15890 ft | 277 kts | 261° |
| 2026-04-25 22:44 | -9.76738 | 157.85267 | 15889 ft | 277 kts | 261° |
| 2026-04-25 22:45 | -9.77105 | 157.83348 | 15885 ft | 277 kts | 261° |
| 2026-04-25 22:45 | -9.77473 | 157.81426 | 15886 ft | 277 kts | 261° |
| 2026-04-25 22:45 | -9.77840 | 157.79510 | 15889 ft | 277 kts | 261° |
| 2026-04-25 22:45 | -9.78209 | 157.77586 | 15887 ft | 279 kts | 261° |
| 2026-04-25 22:46 | -9.78577 | 157.75654 | 15883 ft | 280 kts | 261° |
| 2026-04-25 22:46 | -9.78948 | 157.73714 | 15887 ft | 280 kts | 261° |
| 2026-04-25 22:46 | -9.79320 | 157.71771 | 15887 ft | 281 kts | 261° |
| 2026-04-25 22:46 | -9.79691 | 157.69825 | 15887 ft | 282 kts | 261° |
| 2026-04-25 22:47 | -9.80064 | 157.67873 | 15892 ft | 284 kts | 261° |
| 2026-04-25 22:47 | -9.80440 | 157.65902 | 15886 ft | 285 kts | 261° |
| 2026-04-25 22:47 | -9.80816 | 157.63931 | 15887 ft | 285 kts | 261° |
| 2026-04-25 22:47 | -9.81194 | 157.61951 | 15889 ft | 287 kts | 261° |
| 2026-04-25 22:48 | -9.81570 | 157.59979 | 15887 ft | 290 kts | 261° |
| 2026-04-25 22:48 | -9.81957 | 157.57937 | 15891 ft | 292 kts | 261° |
| 2026-04-25 22:48 | -9.82339 | 157.55938 | 15889 ft | 293 kts | 261° |
| 2026-04-25 22:48 | -9.82732 | 157.53882 | 15888 ft | 293 kts | 261° |
| 2026-04-25 22:49 | -9.83113 | 157.51889 | 15886 ft | 291 kts | 261° |
| 2026-04-25 22:49 | -9.83495 | 157.49887 | 15891 ft | 288 kts | 261° |
| 2026-04-25 22:49 | -9.83874 | 157.47901 | 15886 ft | 286 kts | 261° |
| 2026-04-25 22:49 | -9.84249 | 157.45929 | 15889 ft | 284 kts | 261° |
| 2026-04-25 22:50 | -9.84623 | 157.43963 | 15886 ft | 283 kts | 261° |
| 2026-04-25 22:50 | -9.84995 | 157.42003 | 15893 ft | 283 kts | 261° |
| 2026-04-25 22:50 | -9.85367 | 157.40044 | 15890 ft | 283 kts | 261° |
| 2026-04-25 22:50 | -9.85739 | 157.38089 | 15890 ft | 282 kts | 261° |
| 2026-04-25 22:51 | -9.86110 | 157.36136 | 15889 ft | 282 kts | 261° |
| 2026-04-25 22:51 | -9.86481 | 157.34182 | 15887 ft | 282 kts | 261° |
| 2026-04-25 22:51 | -9.86852 | 157.32230 | 15891 ft | 282 kts | 261° |
| 2026-04-25 22:51 | -9.87223 | 157.30279 | 15891 ft | 282 kts | 261° |
| 2026-04-25 22:52 | -9.87593 | 157.28327 | 15890 ft | 282 kts | 261° |
| 2026-04-25 22:52 | -9.87962 | 157.26381 | 15880 ft | 282 kts | 261° |
| 2026-04-25 22:52 | -9.88332 | 157.24432 | 15887 ft | 281 kts | 261° |
| 2026-04-25 22:52 | -9.88577 | 157.23141 | 15891 ft | 281 kts | 261° |
| 2026-04-25 22:53 | -9.89071 | 157.20532 | 15889 ft | 281 kts | 261° |
| 2026-04-25 22:53 | -9.89441 | 157.18583 | 15890 ft | 281 kts | 261° |
| 2026-04-25 22:53 | -9.89810 | 157.16634 | 15893 ft | 281 kts | 261° |
| 2026-04-25 22:53 | -9.90179 | 157.14685 | 15893 ft | 281 kts | 261° |
| 2026-04-25 22:54 | -9.90547 | 157.12739 | 15893 ft | 281 kts | 261° |
| 2026-04-25 22:54 | -9.90792 | 157.11447 | 15893 ft | 281 kts | 261° |
| 2026-04-25 22:54 | -9.91160 | 157.09500 | 15893 ft | 281 kts | 261° |
| 2026-04-25 22:54 | -9.91528 | 157.07554 | 15896 ft | 281 kts | 261° |
| 2026-04-25 22:55 | -9.91949 | 157.05624 | 15891 ft | 282 kts | 253° |
| 2026-04-25 22:55 | -9.92949 | 157.03904 | 15893 ft | 285 kts | 235° |
| 2026-04-25 22:55 | -9.94156 | 157.02308 | 15895 ft | 285 kts | 237° |
| 2026-04-25 22:55 | -9.95238 | 157.00625 | 15903 ft | 284 kts | 243° |
| 2026-04-25 22:56 | -9.96106 | 156.98834 | 15915 ft | 282 kts | 251° |
| 2026-04-25 22:56 | -9.96648 | 156.96928 | 15908 ft | 281 kts | 262° |
| 2026-04-25 22:56 | -9.96909 | 156.94969 | 15914 ft | 280 kts | 265° |
| 2026-04-25 22:56 | -9.97195 | 156.93009 | 15907 ft | 281 kts | 262° |
| 2026-04-25 22:57 | -9.97572 | 156.91063 | 15906 ft | 281 kts | 261° |
| 2026-04-25 22:57 | -9.97945 | 156.89118 | 15902 ft | 281 kts | 262° |
| 2026-04-25 22:57 | -9.98294 | 156.87165 | 15903 ft | 281 kts | 262° |
| 2026-04-25 22:57 | -9.98642 | 156.85213 | 15902 ft | 281 kts | 262° |
| 2026-04-25 22:58 | -9.98995 | 156.83265 | 15900 ft | 281 kts | 262° |
| 2026-04-25 22:58 | -9.99350 | 156.81313 | 15902 ft | 281 kts | 262° |
| 2026-04-25 22:58 | -9.99698 | 156.79390 | 15899 ft | 281 kts | 262° |
| 2026-04-25 22:58 | -10.00056 | 156.77412 | 15901 ft | 281 kts | 262° |
| 2026-04-25 22:59 | -10.00408 | 156.75464 | 15899 ft | 281 kts | 262° |
| 2026-04-25 22:59 | -10.00756 | 156.73541 | 15897 ft | 281 kts | 262° |
| 2026-04-25 22:59 | -10.01108 | 156.71591 | 15893 ft | 281 kts | 262° |
| 2026-04-25 22:59 | -10.01460 | 156.69642 | 15897 ft | 281 kts | 262° |
| 2026-04-25 23:00 | -10.01813 | 156.67692 | 15898 ft | 281 kts | 262° |
| 2026-04-25 23:00 | -10.02164 | 156.65743 | 15897 ft | 281 kts | 262° |
| 2026-04-25 23:00 | -10.02516 | 156.63793 | 15897 ft | 281 kts | 262° |
| 2026-04-25 23:00 | -10.02867 | 156.61845 | 15898 ft | 281 kts | 262° |
| 2026-04-25 23:01 | -10.03219 | 156.59898 | 15901 ft | 281 kts | 262° |
| 2026-04-25 23:01 | -10.03570 | 156.57950 | 15895 ft | 281 kts | 262° |
| 2026-04-25 23:01 | -10.03921 | 156.56001 | 15897 ft | 281 kts | 262° |
| 2026-04-25 23:01 | -10.04273 | 156.54052 | 15899 ft | 281 kts | 262° |
| 2026-04-25 23:02 | -10.04623 | 156.52107 | 15898 ft | 281 kts | 262° |
| 2026-04-25 23:02 | -10.04974 | 156.50159 | 15895 ft | 281 kts | 262° |
| 2026-04-25 23:02 | -10.05324 | 156.48211 | 15901 ft | 281 kts | 262° |
| 2026-04-25 23:02 | -10.05675 | 156.46263 | 15897 ft | 281 kts | 262° |
| 2026-04-25 23:03 | -10.06025 | 156.44318 | 15900 ft | 280 kts | 262° |
| 2026-04-25 23:03 | -10.06375 | 156.42370 | 15897 ft | 280 kts | 262° |
| 2026-04-25 23:03 | -10.06724 | 156.40427 | 15897 ft | 280 kts | 262° |
| 2026-04-25 23:03 | -10.07074 | 156.38480 | 15903 ft | 280 kts | 262° |
| 2026-04-25 23:04 | -10.07423 | 156.36540 | 15901 ft | 280 kts | 262° |
| 2026-04-25 23:04 | -10.07772 | 156.34594 | 15900 ft | 280 kts | 262° |
| 2026-04-25 23:04 | -10.08119 | 156.32660 | 15900 ft | 280 kts | 262° |
| 2026-04-25 23:04 | -10.08470 | 156.30704 | 15901 ft | 280 kts | 262° |
| 2026-04-25 23:05 | -10.08819 | 156.28760 | 15904 ft | 280 kts | 262° |
| 2026-04-25 23:05 | -10.09168 | 156.26818 | 15904 ft | 280 kts | 262° |
| 2026-04-25 23:05 | -10.09516 | 156.24875 | 15903 ft | 280 kts | 262° |
| 2026-04-25 23:05 | -10.09865 | 156.22929 | 15897 ft | 280 kts | 262° |
| 2026-04-25 23:06 | -10.10213 | 156.20986 | 15901 ft | 280 kts | 262° |
| 2026-04-25 23:06 | -10.10560 | 156.19048 | 15902 ft | 280 kts | 262° |
| 2026-04-25 23:06 | -10.10910 | 156.17093 | 15901 ft | 280 kts | 262° |
| 2026-04-25 23:06 | -10.11258 | 156.15148 | 15895 ft | 280 kts | 262° |
| 2026-04-25 23:07 | -10.11606 | 156.13200 | 15898 ft | 280 kts | 262° |
| 2026-04-25 23:07 | -10.11954 | 156.11252 | 15898 ft | 280 kts | 262° |
| 2026-04-25 23:07 | -10.12302 | 156.09307 | 15900 ft | 280 kts | 262° |
| 2026-04-25 23:07 | -10.12645 | 156.07390 | 15900 ft | 280 kts | 262° |
| 2026-04-25 23:08 | -10.12997 | 156.05416 | 15899 ft | 280 kts | 262° |
| 2026-04-25 23:08 | -10.13339 | 156.03502 | 15900 ft | 280 kts | 262° |
| 2026-04-25 23:08 | -10.13687 | 156.01552 | 15901 ft | 280 kts | 262° |
| 2026-04-25 23:08 | -10.14033 | 155.99615 | 15897 ft | 280 kts | 262° |
| 2026-04-25 23:09 | -10.14382 | 155.97660 | 15896 ft | 280 kts | 262° |
| 2026-04-25 23:09 | -10.14728 | 155.95715 | 15899 ft | 280 kts | 262° |
| 2026-04-25 23:09 | -10.15075 | 155.93771 | 15896 ft | 280 kts | 262° |
| 2026-04-25 23:09 | -10.15422 | 155.91825 | 15899 ft | 280 kts | 262° |
| 2026-04-25 23:10 | -10.15769 | 155.89875 | 15897 ft | 280 kts | 262° |
| 2026-04-25 23:10 | -10.16116 | 155.87928 | 15898 ft | 280 kts | 262° |
| 2026-04-25 23:10 | -10.16462 | 155.85981 | 15898 ft | 280 kts | 262° |
| 2026-04-25 23:10 | -10.16809 | 155.84030 | 15899 ft | 280 kts | 262° |
| 2026-04-25 23:11 | -10.17156 | 155.82084 | 15898 ft | 280 kts | 262° |
| 2026-04-25 23:11 | -10.17500 | 155.80142 | 15895 ft | 280 kts | 262° |
| 2026-04-25 23:11 | -10.17847 | 155.78194 | 15896 ft | 280 kts | 262° |
| 2026-04-25 23:11 | -10.18193 | 155.76247 | 15894 ft | 280 kts | 262° |
| 2026-04-25 23:12 | -10.18535 | 155.74324 | 15897 ft | 280 kts | 262° |
| 2026-04-25 23:12 | -10.18884 | 155.72353 | 15898 ft | 280 kts | 262° |
| 2026-04-25 23:12 | -10.19230 | 155.70407 | 15896 ft | 280 kts | 262° |
| 2026-04-25 23:12 | -10.19575 | 155.68463 | 15901 ft | 280 kts | 262° |
| 2026-04-25 23:13 | -10.19920 | 155.66515 | 15901 ft | 280 kts | 262° |
| 2026-04-25 23:13 | -10.20265 | 155.64572 | 15898 ft | 280 kts | 262° |
| 2026-04-25 23:13 | -10.20610 | 155.62626 | 15902 ft | 280 kts | 262° |
| 2026-04-25 23:13 | -10.20954 | 155.60682 | 15900 ft | 280 kts | 262° |
| 2026-04-25 23:14 | -10.21298 | 155.58737 | 15902 ft | 280 kts | 262° |
| 2026-04-25 23:14 | -10.21643 | 155.56794 | 15898 ft | 280 kts | 262° |
| 2026-04-25 23:14 | -10.21987 | 155.54848 | 15898 ft | 280 kts | 262° |
| 2026-04-25 23:14 | -10.22331 | 155.52905 | 15898 ft | 280 kts | 262° |
| 2026-04-25 23:15 | -10.22674 | 155.50962 | 15898 ft | 280 kts | 262° |
| 2026-04-25 23:15 | -10.23019 | 155.49013 | 15899 ft | 280 kts | 262° |
| 2026-04-25 23:15 | -10.23362 | 155.47072 | 15897 ft | 280 kts | 262° |
| 2026-04-25 23:15 | -10.23706 | 155.45130 | 15899 ft | 280 kts | 262° |
| 2026-04-25 23:16 | -10.24050 | 155.43182 | 15898 ft | 280 kts | 262° |
| 2026-04-25 23:16 | -10.24393 | 155.41237 | 15898 ft | 280 kts | 262° |
| 2026-04-25 23:16 | -10.24727 | 155.39291 | 15898 ft | 280 kts | 263° |
| 2026-04-25 23:16 | -10.25026 | 155.37342 | 15899 ft | 279 kts | 264° |
| 2026-04-25 23:17 | -10.25292 | 155.35387 | 15899 ft | 279 kts | 265° |
| 2026-04-25 23:17 | -10.25520 | 155.33460 | 15899 ft | 279 kts | 266° |
| 2026-04-25 23:17 | -10.25877 | 155.31524 | 15895 ft | 280 kts | 257° |
| 2026-04-25 23:17 | -10.26419 | 155.29618 | 15901 ft | 280 kts | 257° |
| 2026-04-25 23:18 | -10.26837 | 155.27691 | 15905 ft | 279 kts | 262° |
| 2026-04-25 23:18 | -10.27136 | 155.25743 | 15911 ft | 279 kts | 263° |
| 2026-04-25 23:18 | -10.27452 | 155.23798 | 15906 ft | 280 kts | 262° |
| 2026-04-25 23:18 | -10.27804 | 155.21859 | 15903 ft | 280 kts | 262° |
| 2026-04-25 23:19 | -10.28153 | 155.19916 | 15905 ft | 280 kts | 262° |
| 2026-04-25 23:19 | -10.28493 | 155.17969 | 15900 ft | 280 kts | 262° |
| 2026-04-25 23:19 | -10.28832 | 155.16028 | 15903 ft | 280 kts | 262° |
| 2026-04-25 23:19 | -10.29174 | 155.14082 | 15898 ft | 280 kts | 262° |
| 2026-04-25 23:20 | -10.29516 | 155.12138 | 15899 ft | 280 kts | 262° |
| 2026-04-25 23:20 | -10.29858 | 155.10194 | 15902 ft | 280 kts | 262° |
| 2026-04-25 23:20 | -10.30198 | 155.08249 | 15901 ft | 280 kts | 262° |
| 2026-04-25 23:20 | -10.30540 | 155.06304 | 15900 ft | 280 kts | 262° |
| 2026-04-25 23:21 | -10.30880 | 155.04360 | 15901 ft | 280 kts | 262° |
| 2026-04-25 23:21 | -10.31221 | 155.02414 | 15901 ft | 280 kts | 262° |
| 2026-04-25 23:21 | -10.31563 | 155.00468 | 15897 ft | 280 kts | 262° |
| 2026-04-25 23:21 | -10.31903 | 154.98523 | 15898 ft | 280 kts | 262° |
| 2026-04-25 23:22 | -10.32244 | 154.96577 | 15897 ft | 280 kts | 262° |
| 2026-04-25 23:22 | -10.32584 | 154.94634 | 15894 ft | 280 kts | 262° |
| 2026-04-25 23:22 | -10.32925 | 154.92688 | 15893 ft | 280 kts | 262° |
| 2026-04-25 23:23 | -10.33611 | 154.88729 | 15545 ft | 289 kts | 262° |
| 2026-04-25 23:23 | -10.33964 | 154.86713 | 15415 ft | 289 kts | 262° |
| 2026-04-25 23:23 | -10.34319 | 154.84716 | 15416 ft | 285 kts | 262° |
| 2026-04-25 23:23 | -10.34666 | 154.82741 | 15412 ft | 283 kts | 262° |
| 2026-04-25 23:24 | -10.35006 | 154.80779 | 15411 ft | 281 kts | 262° |
| 2026-04-25 23:24 | -10.35346 | 154.78825 | 15410 ft | 281 kts | 262° |
| 2026-04-25 23:24 | -10.35686 | 154.76876 | 15406 ft | 280 kts | 262° |
| 2026-04-25 23:24 | -10.36027 | 154.74928 | 15408 ft | 280 kts | 262° |
| 2026-04-25 23:25 | -10.36365 | 154.72988 | 15416 ft | 279 kts | 262° |
| 2026-04-25 23:25 | -10.36703 | 154.71048 | 15417 ft | 279 kts | 262° |
| 2026-04-25 23:25 | -10.37036 | 154.69134 | 15438 ft | 278 kts | 262° |
| 2026-04-25 23:25 | -10.37373 | 154.67202 | 15449 ft | 278 kts | 262° |
| 2026-04-25 23:26 | -10.37710 | 154.65266 | 15454 ft | 278 kts | 262° |
| 2026-04-25 23:26 | -10.38046 | 154.63331 | 15465 ft | 278 kts | 262° |
| 2026-04-25 23:26 | -10.38383 | 154.61399 | 15470 ft | 278 kts | 262° |
| 2026-04-25 23:26 | -10.38719 | 154.59464 | 15479 ft | 278 kts | 262° |
| 2026-04-25 23:27 | -10.39055 | 154.57540 | 15546 ft | 276 kts | 262° |
| 2026-04-25 23:27 | -10.39087 | 154.57354 | 15555 ft | 276 kts | 262° |
| 2026-04-25 23:27 | -10.39292 | 154.56175 | 15596 ft | 275 kts | 262° |
| 2026-04-25 23:28 | -10.39624 | 154.54264 | 15665 ft | 274 kts | 262° |
| 2026-04-25 23:28 | -10.39954 | 154.52362 | 15738 ft | 274 kts | 262° |
| 2026-04-25 23:28 | -10.40285 | 154.50457 | 15805 ft | 273 kts | 262° |
| 2026-04-25 23:28 | -10.40602 | 154.48626 | 15872 ft | 273 kts | 262° |
| 2026-04-25 23:29 | -10.40932 | 154.46723 | 15902 ft | 275 kts | 262° |
| 2026-04-25 23:29 | -10.41264 | 154.44800 | 15903 ft | 277 kts | 262° |
| 2026-04-25 23:29 | -10.41598 | 154.42871 | 15901 ft | 278 kts | 262° |
| 2026-04-25 23:29 | -10.41935 | 154.40933 | 15900 ft | 279 kts | 262° |
| 2026-04-25 23:30 | -10.42271 | 154.38992 | 15901 ft | 279 kts | 262° |
| 2026-04-25 23:30 | -10.42607 | 154.37049 | 15901 ft | 280 kts | 262° |
| 2026-04-25 23:30 | -10.42944 | 154.35104 | 15901 ft | 280 kts | 262° |
| 2026-04-25 23:30 | -10.43281 | 154.33158 | 15901 ft | 280 kts | 262° |
| 2026-04-25 23:31 | -10.43599 | 154.31209 | 15900 ft | 280 kts | 265° |
| 2026-04-25 23:31 | -10.43510 | 154.29236 | 15694 ft | 285 kts | 288° |
| 2026-04-25 23:31 | -10.42335 | 154.27802 | 16322 ft | 257 kts | 338° |
| 2026-04-25 23:31 | -10.40669 | 154.27728 | 17111 ft | 244 kts | 10° |
| 2026-04-25 23:32 | -10.39098 | 154.28529 | 17026 ft | 266 kts | 39° |
| 2026-04-25 23:32 | -10.38030 | 154.30115 | 16948 ft | 283 kts | 68° |
| 2026-04-25 23:32 | -10.37802 | 154.32119 | 16883 ft | 293 kts | 96° |
| 2026-04-25 23:32 | -10.38516 | 154.34064 | 16816 ft | 299 kts | 124° |
| 2026-04-25 23:33 | -10.40032 | 154.35501 | 16750 ft | 301 kts | 152° |
| 2026-04-25 23:33 | -10.42015 | 154.36103 | 16679 ft | 300 kts | 179° |
| 2026-04-25 23:33 | -10.44042 | 154.35746 | 16605 ft | 296 kts | 206° |
| 2026-04-25 23:33 | -10.45666 | 154.34518 | 16537 ft | 291 kts | 233° |
| 2026-04-25 23:34 | -10.46542 | 154.32700 | 16466 ft | 287 kts | 260° |
| 2026-04-25 23:34 | -10.46503 | 154.30725 | 16395 ft | 285 kts | 284° |
| 2026-04-25 23:34 | -10.45909 | 154.28805 | 16301 ft | 285 kts | 289° |
| 2026-04-25 23:34 | -10.45345 | 154.26845 | 16195 ft | 286 kts | 285° |
| 2026-04-25 23:35 | -10.44993 | 154.24865 | 16078 ft | 287 kts | 278° |
| 2026-04-25 23:35 | -10.44943 | 154.22822 | 15959 ft | 289 kts | 267° |
| 2026-04-25 23:35 | -10.45283 | 154.20812 | 15915 ft | 288 kts | 259° |
| 2026-04-25 23:35 | -10.45736 | 154.18844 | 15914 ft | 285 kts | 259° |
| 2026-04-25 23:36 | -10.46125 | 154.16901 | 15914 ft | 283 kts | 262° |
| 2026-04-25 23:36 | -10.46338 | 154.15575 | 15913 ft | 282 kts | 263° |
| 2026-04-25 23:36 | -10.46755 | 154.12973 | 15910 ft | 281 kts | 262° |
| 2026-04-25 23:36 | -10.47099 | 154.11020 | 15906 ft | 281 kts | 262° |
| 2026-04-25 23:37 | -10.47440 | 154.09073 | 15904 ft | 280 kts | 262° |
| 2026-04-25 23:37 | -10.47774 | 154.07123 | 15907 ft | 280 kts | 262° |
| 2026-04-25 23:37 | -10.48107 | 154.05180 | 15908 ft | 280 kts | 262° |
| 2026-04-25 23:37 | -10.48443 | 154.03227 | 15869 ft | 281 kts | 262° |
| 2026-04-25 23:38 | -10.48779 | 154.01259 | 15717 ft | 285 kts | 262° |
| 2026-04-25 23:38 | -10.49121 | 153.99253 | 15505 ft | 290 kts | 262° |
| 2026-04-25 23:38 | -10.49468 | 153.97228 | 15280 ft | 293 kts | 262° |
| 2026-04-25 23:38 | -10.49818 | 153.95203 | 15172 ft | 291 kts | 262° |
| 2026-04-25 23:39 | -10.50167 | 153.93178 | 14976 ft | 292 kts | 262° |
| 2026-04-25 23:39 | -10.50516 | 153.91139 | 14750 ft | 293 kts | 262° |
| 2026-04-25 23:39 | -10.50865 | 153.89094 | 14514 ft | 294 kts | 262° |
| 2026-04-25 23:39 | -10.51216 | 153.87045 | 14274 ft | 295 kts | 262° |
| 2026-04-25 23:40 | -10.51568 | 153.84995 | 14034 ft | 295 kts | 262° |
| 2026-04-25 23:40 | -10.51920 | 153.82944 | 13790 ft | 294 kts | 262° |
| 2026-04-25 23:40 | -10.52272 | 153.80896 | 13529 ft | 294 kts | 262° |
| 2026-04-25 23:40 | -10.52619 | 153.78863 | 13276 ft | 292 kts | 262° |
| 2026-04-25 23:41 | -10.52967 | 153.76826 | 13032 ft | 291 kts | 262° |
| 2026-04-25 23:41 | -10.53309 | 153.74827 | 12793 ft | 290 kts | 262° |
| 2026-04-25 23:41 | -10.53654 | 153.72824 | 12699 ft | 284 kts | 262° |
| 2026-04-25 23:41 | -10.53994 | 153.70868 | 12696 ft | 279 kts | 262° |
| 2026-04-25 23:42 | -10.54324 | 153.68941 | 12696 ft | 275 kts | 262° |
| 2026-04-25 23:42 | -10.54648 | 153.67034 | 12731 ft | 272 kts | 262° |
| 2026-04-25 23:42 | -10.54970 | 153.65141 | 12735 ft | 271 kts | 262° |
| 2026-04-25 23:42 | -10.55288 | 153.63274 | 12909 ft | 265 kts | 262° |
| 2026-04-25 23:43 | -10.55605 | 153.61447 | 13134 ft | 260 kts | 262° |
| 2026-04-25 23:43 | -10.55913 | 153.59651 | 13353 ft | 257 kts | 262° |
| 2026-04-25 23:43 | -10.56116 | 153.58447 | 13503 ft | 256 kts | 262° |
| 2026-04-25 23:43 | -10.56417 | 153.56670 | 13725 ft | 254 kts | 262° |
| 2026-04-25 23:44 | -10.56720 | 153.54905 | 13922 ft | 254 kts | 262° |
| 2026-04-25 23:44 | -10.57016 | 153.53163 | 14128 ft | 253 kts | 262° |
| 2026-04-25 23:44 | -10.57316 | 153.51400 | 14318 ft | 253 kts | 262° |
| 2026-04-25 23:44 | -10.57616 | 153.49637 | 14528 ft | 253 kts | 262° |
| 2026-04-25 23:45 | -10.57915 | 153.47878 | 14734 ft | 253 kts | 262° |
| 2026-04-25 23:45 | -10.58216 | 153.46113 | 14936 ft | 253 kts | 262° |
| 2026-04-25 23:45 | -10.58515 | 153.44350 | 15146 ft | 253 kts | 263° |
| 2026-04-25 23:45 | -10.58816 | 153.42584 | 15353 ft | 254 kts | 262° |
| 2026-04-25 23:46 | -10.59116 | 153.40821 | 15562 ft | 254 kts | 263° |
| 2026-04-25 23:46 | -10.59417 | 153.39053 | 15776 ft | 254 kts | 263° |
| 2026-04-25 23:46 | -10.59717 | 153.37277 | 15909 ft | 258 kts | 263° |
| 2026-04-25 23:46 | -10.60023 | 153.35454 | 15911 ft | 265 kts | 263° |
| 2026-04-25 23:47 | -10.60338 | 153.33593 | 15913 ft | 269 kts | 262° |
| 2026-04-25 23:47 | -10.60659 | 153.31704 | 15916 ft | 272 kts | 263° |
| 2026-04-25 23:47 | -10.60982 | 153.29801 | 15920 ft | 274 kts | 262° |
| 2026-04-25 23:47 | -10.61306 | 153.27889 | 15918 ft | 275 kts | 263° |
| 2026-04-25 23:48 | -10.61632 | 153.25969 | 15921 ft | 276 kts | 263° |
| 2026-04-25 23:48 | -10.61958 | 153.24044 | 15917 ft | 277 kts | 263° |
| 2026-04-25 23:48 | -10.62284 | 153.22116 | 15918 ft | 277 kts | 263° |
| 2026-04-25 23:48 | -10.62611 | 153.20183 | 15919 ft | 277 kts | 263° |
| 2026-04-25 23:49 | -10.62938 | 153.18253 | 15918 ft | 277 kts | 263° |
| 2026-04-25 23:49 | -10.63265 | 153.16320 | 15917 ft | 277 kts | 263° |
| 2026-04-25 23:49 | -10.63591 | 153.14388 | 15915 ft | 278 kts | 262° |
| 2026-04-25 23:49 | -10.63919 | 153.12454 | 15916 ft | 278 kts | 263° |
| 2026-04-25 23:50 | -10.64245 | 153.10521 | 15914 ft | 278 kts | 263° |
| 2026-04-25 23:50 | -10.64571 | 153.08591 | 15911 ft | 278 kts | 263° |
| 2026-04-25 23:50 | -10.64898 | 153.06652 | 15912 ft | 278 kts | 263° |
| 2026-04-25 23:50 | -10.65225 | 153.04714 | 15913 ft | 278 kts | 263° |
| 2026-04-25 23:51 | -10.65551 | 153.02782 | 15913 ft | 278 kts | 263° |
| 2026-04-25 23:51 | -10.65878 | 153.00846 | 15912 ft | 278 kts | 262° |
| 2026-04-25 23:51 | -10.66203 | 152.98915 | 15911 ft | 278 kts | 263° |
| 2026-04-25 23:51 | -10.66529 | 152.96981 | 15912 ft | 278 kts | 262° |
| 2026-04-25 23:52 | -10.66855 | 152.95044 | 15911 ft | 278 kts | 263° |
| 2026-04-25 23:52 | -10.67180 | 152.93113 | 15913 ft | 278 kts | 263° |
| 2026-04-25 23:52 | -10.67505 | 152.91178 | 15910 ft | 278 kts | 263° |
| 2026-04-25 23:52 | -10.67831 | 152.89243 | 15912 ft | 278 kts | 263° |
| 2026-04-25 23:53 | -10.68156 | 152.87311 | 15912 ft | 277 kts | 263° |
| 2026-04-25 23:53 | -10.68481 | 152.85374 | 15911 ft | 278 kts | 263° |
| 2026-04-25 23:53 | -10.68803 | 152.83441 | 15914 ft | 277 kts | 264° |
| 2026-04-25 23:53 | -10.69024 | 152.81501 | 15916 ft | 277 kts | 266° |
| 2026-04-25 23:54 | -10.69244 | 152.79550 | 15912 ft | 277 kts | 265° |
| 2026-04-25 23:54 | -10.69472 | 152.77608 | 15917 ft | 277 kts | 265° |
| 2026-04-25 23:54 | -10.69696 | 152.75661 | 15912 ft | 277 kts | 265° |
| 2026-04-25 23:54 | -10.69918 | 152.73715 | 15915 ft | 277 kts | 265° |
| 2026-04-25 23:55 | -10.70137 | 152.71796 | 15915 ft | 277 kts | 265° |
| 2026-04-25 23:55 | -10.70363 | 152.69821 | 15909 ft | 277 kts | 265° |
| 2026-04-25 23:55 | -10.70585 | 152.67876 | 15914 ft | 277 kts | 265° |
| 2026-04-25 23:55 | -10.70804 | 152.65956 | 15912 ft | 277 kts | 265° |
| 2026-04-25 23:56 | -10.71026 | 152.64007 | 15912 ft | 277 kts | 265° |
| 2026-04-25 23:56 | -10.71248 | 152.62063 | 15910 ft | 277 kts | 265° |
| 2026-04-25 23:56 | -10.71470 | 152.60116 | 15912 ft | 277 kts | 265° |
| 2026-04-25 23:56 | -10.71691 | 152.58173 | 15912 ft | 277 kts | 265° |
| 2026-04-25 23:57 | -10.71912 | 152.56231 | 15911 ft | 277 kts | 265° |
| 2026-04-25 23:57 | -10.72133 | 152.54288 | 15914 ft | 277 kts | 265° |
| 2026-04-25 23:57 | -10.72354 | 152.52341 | 15912 ft | 277 kts | 265° |
| 2026-04-25 23:57 | -10.72575 | 152.50401 | 15915 ft | 277 kts | 265° |
| 2026-04-25 23:58 | -10.72796 | 152.48459 | 15913 ft | 276 kts | 265° |
| 2026-04-25 23:58 | -10.73016 | 152.46517 | 15912 ft | 276 kts | 265° |
| 2026-04-25 23:58 | -10.73236 | 152.44574 | 15916 ft | 276 kts | 265° |
| 2026-04-25 23:58 | -10.73456 | 152.42635 | 15917 ft | 276 kts | 265° |
| 2026-04-25 23:59 | -10.73676 | 152.40694 | 15914 ft | 276 kts | 266° |
| 2026-04-25 23:59 | -10.73896 | 152.38752 | 15915 ft | 276 kts | 265° |
| 2026-04-25 23:59 | -10.74116 | 152.36813 | 15914 ft | 276 kts | 266° |
| 2026-04-25 23:59 | -10.74335 | 152.34873 | 15916 ft | 276 kts | 265° |
| 2026-04-26 00:00 | -10.74554 | 152.32931 | 15915 ft | 276 kts | 266° |
| 2026-04-26 00:00 | -10.74773 | 152.30992 | 15917 ft | 276 kts | 266° |
| 2026-04-26 00:00 | -10.74992 | 152.29052 | 15913 ft | 276 kts | 266° |
| 2026-04-26 00:00 | -10.75211 | 152.27115 | 15917 ft | 276 kts | 266° |
| 2026-04-26 00:01 | -10.75428 | 152.25180 | 15915 ft | 275 kts | 266° |
| 2026-04-26 00:01 | -10.75647 | 152.23247 | 15913 ft | 275 kts | 266° |
| 2026-04-26 00:01 | -10.75865 | 152.21316 | 15916 ft | 275 kts | 266° |
| 2026-04-26 00:01 | -10.76082 | 152.19377 | 15916 ft | 275 kts | 266° |
| 2026-04-26 00:02 | -10.76300 | 152.17447 | 15920 ft | 275 kts | 266° |
| 2026-04-26 00:02 | -10.76517 | 152.15514 | 15916 ft | 275 kts | 266° |
| 2026-04-26 00:02 | -10.76734 | 152.13579 | 15916 ft | 275 kts | 266° |
| 2026-04-26 00:02 | -10.76951 | 152.11647 | 15913 ft | 275 kts | 266° |
| 2026-04-26 00:03 | -10.77168 | 152.09713 | 15917 ft | 275 kts | 266° |
| 2026-04-26 00:03 | -10.77386 | 152.07778 | 15918 ft | 275 kts | 266° |
| 2026-04-26 00:03 | -10.77603 | 152.05842 | 15919 ft | 275 kts | 266° |
| 2026-04-26 00:03 | -10.77819 | 152.03911 | 15916 ft | 275 kts | 266° |
| 2026-04-26 00:04 | -10.78036 | 152.01978 | 15920 ft | 275 kts | 266° |
| 2026-04-26 00:04 | -10.78253 | 152.00043 | 15921 ft | 275 kts | 266° |
| 2026-04-26 00:04 | -10.78469 | 151.98111 | 15921 ft | 275 kts | 266° |
| 2026-04-26 00:04 | -10.78684 | 151.96178 | 15920 ft | 275 kts | 266° |
| 2026-04-26 00:05 | -10.78900 | 151.94249 | 15921 ft | 275 kts | 266° |
| 2026-04-26 00:05 | -10.79117 | 151.92319 | 15923 ft | 275 kts | 266° |
| 2026-04-26 00:05 | -10.79332 | 151.90388 | 15923 ft | 275 kts | 266° |